Aérodrome :
LOGIN :

S'inscrire | Disclaimer

   EN    FR    IT 

 










Légende :    VFR   VFR Marginal   IFR   IFR Intensif   IFR Très Intensif
Visi : 
Plafond : 
>= 8 km
>= 3000ft
5 à 8 km
1000 à 3000 ft
1500m à 5 km
500 à 1000 ft
800 à 1500m
200 à 500 ft
< 800m
< 200 ft
Symboles :   Orages  Brouillard  Fortes neiges  Fortes précipitations  Vent > 20 kt
SIGMETs :   Divers  Orages  Givrage  Turbulence  Onde Orograph.  Cendres Volcan.







- Altitude de l'aérodrome : 202 ft
- Code IATA : LGW
- Voir les cartes d'approche


EGKK - London Gatwick

DERNIER METAR :
  • 092350Z 25006KT CAVOK 05/04 Q1023

METARs EXPIRÉS :
  • 092320Z 27007KT CAVOK 06/04 Q1022
  • 092250Z 25007KT CAVOK 06/04 Q1022
  • 092220Z 26008KT 9999 FEW040 06/04 Q1022
  • 092150Z 25007KT 9999 SCT039 06/04 Q1021
  • 092120Z 26006KT 9999 SCT045 07/04 Q1021

TAF TAF EGKK
Valide du 10 à 00h jusqu'au 11 à 06h UTC


092305Z 1000/1106 27006KT 9999 SCT040
PROB30 1021/1024 8000
BECMG 1100/1103 5000 BR
TEMPO 1101/1106 2000 MIFG
PROB30 1104/1106 0300 FG VV///
Pas de NOTAMs connus pour ce terrain.



MET'MAP, la Météo Aéronautique d'un coup d'oeil ! - Copyright ORBIFLY Décembre 2007 - Disclaimer

ORBIFLY MET'MAP TEAM :

Programmation & Développement : Alexandra Zaïnal
Conception & Développement : Baudouin d'Aumeries
Co-Programmation & Développement : Marc-Olivier Méhu
Soutien technique & logistique : Manuel Goepfert

Contact : metmap@orbifly.com




SOURCES & CREDITS :

   NOAA